sensor_id;sensor_type;location;lat;lon;timestamp;P1;durP1;ratioP1;P2;durP2;ratioP2
58366;SDS011;57745;42.524;12.052;2023-06-26T00:02:11;3.30;;;2.33;;
58366;SDS011;57745;42.524;12.052;2023-06-26T00:04:37;3.92;;;2.53;;
58366;SDS011;57745;42.524;12.052;2023-06-26T00:07:03;3.60;;;2.15;;
58366;SDS011;57745;42.524;12.052;2023-06-26T00:09:29;3.35;;;2.22;;
58366;SDS011;57745;42.524;12.052;2023-06-26T00:11:55;2.75;;;1.98;;
58366;SDS011;57745;42.524;12.052;2023-06-26T00:14:20;3.75;;;2.30;;
58366;SDS011;57745;42.524;12.052;2023-06-26T00:16:46;3.00;;;2.30;;
58366;SDS011;57745;42.524;12.052;2023-06-26T00:19:12;6.20;;;2.40;;
58366;SDS011;57745;42.524;12.052;2023-06-26T00:21:43;3.58;;;2.45;;
58366;SDS011;57745;42.524;12.052;2023-06-26T00:24:11;2.58;;;2.38;;
58366;SDS011;57745;42.524;12.052;2023-06-26T00:26:37;3.53;;;2.33;;
58366;SDS011;57745;42.524;12.052;2023-06-26T00:29:03;2.90;;;2.45;;
58366;SDS011;57745;42.524;12.052;2023-06-26T00:31:28;4.60;;;2.35;;
58366;SDS011;57745;42.524;12.052;2023-06-26T00:33:53;5.22;;;2.30;;
58366;SDS011;57745;42.524;12.052;2023-06-26T00:36:19;2.67;;;2.28;;
58366;SDS011;57745;42.524;12.052;2023-06-26T00:38:44;3.72;;;2.63;;
58366;SDS011;57745;42.524;12.052;2023-06-26T00:41:10;3.72;;;2.83;;
58366;SDS011;57745;42.524;12.052;2023-06-26T00:43:37;3.50;;;2.35;;
58366;SDS011;57745;42.524;12.052;2023-06-26T00:46:04;2.75;;;2.17;;
58366;SDS011;57745;42.524;12.052;2023-06-26T00:48:30;4.20;;;2.55;;
58366;SDS011;57745;42.524;12.052;2023-06-26T00:50:55;3.20;;;2.90;;
58366;SDS011;57745;42.524;12.052;2023-06-26T00:53:21;3.25;;;2.60;;
58366;SDS011;57745;42.524;12.052;2023-06-26T00:55:47;2.83;;;2.30;;
58366;SDS011;57745;42.524;12.052;2023-06-26T00:58:12;2.95;;;2.58;;
58366;SDS011;57745;42.524;12.052;2023-06-26T01:00:38;3.42;;;2.60;;
58366;SDS011;57745;42.524;12.052;2023-06-26T01:03:04;2.60;;;2.30;;
58366;SDS011;57745;42.524;12.052;2023-06-26T01:05:29;3.17;;;2.85;;
58366;SDS011;57745;42.524;12.052;2023-06-26T01:07:56;4.68;;;2.97;;
58366;SDS011;57745;42.524;12.052;2023-06-26T01:10:23;3.90;;;2.58;;
58366;SDS011;57745;42.524;12.052;2023-06-26T01:12:49;2.90;;;2.63;;
58366;SDS011;57745;42.524;12.052;2023-06-26T01:15:14;3.65;;;2.60;;
58366;SDS011;57745;42.524;12.052;2023-06-26T01:17:40;3.70;;;2.60;;
58366;SDS011;57745;42.524;12.052;2023-06-26T01:20:10;2.90;;;2.55;;
58366;SDS011;57745;42.524;12.052;2023-06-26T01:22:45;3.67;;;2.80;;
58366;SDS011;57745;42.524;12.052;2023-06-26T01:25:21;3.05;;;2.75;;
58366;SDS011;57745;42.524;12.052;2023-06-26T01:27:55;5.32;;;2.40;;
58366;SDS011;57745;42.524;12.052;2023-06-26T01:30:21;3.45;;;2.50;;
58366;SDS011;57745;42.524;12.052;2023-06-26T01:32:47;3.40;;;2.67;;
58366;SDS011;57745;42.524;12.052;2023-06-26T01:35:15;4.25;;;2.72;;
58366;SDS011;57745;42.524;12.052;2023-06-26T01:37:41;3.45;;;2.80;;
58366;SDS011;57745;42.524;12.052;2023-06-26T01:40:06;3.83;;;2.75;;
58366;SDS011;57745;42.524;12.052;2023-06-26T01:42:33;5.22;;;2.58;;
58366;SDS011;57745;42.524;12.052;2023-06-26T01:45:00;5.40;;;2.90;;
58366;SDS011;57745;42.524;12.052;2023-06-26T01:47:59;4.50;;;3.00;;
58366;SDS011;57745;42.524;12.052;2023-06-26T01:50:28;3.78;;;2.83;;
58366;SDS011;57745;42.524;12.052;2023-06-26T01:58:10;4.38;;;2.70;;
58366;SDS011;57745;42.524;12.052;2023-06-26T02:00:35;4.45;;;2.80;;
58366;SDS011;57745;42.524;12.052;2023-06-26T02:03:02;3.40;;;2.75;;
58366;SDS011;57745;42.524;12.052;2023-06-26T02:05:30;5.57;;;3.28;;
58366;SDS011;57745;42.524;12.052;2023-06-26T02:07:56;4.68;;;2.85;;
58366;SDS011;57745;42.524;12.052;2023-06-26T02:10:21;3.40;;;2.67;;
58366;SDS011;57745;42.524;12.052;2023-06-26T02:12:47;3.13;;;2.80;;
58366;SDS011;57745;42.524;12.052;2023-06-26T02:15:12;3.70;;;2.80;;
58366;SDS011;57745;42.524;12.052;2023-06-26T02:17:37;4.28;;;2.92;;
58366;SDS011;57745;42.524;12.052;2023-06-26T02:20:03;3.45;;;2.50;;
58366;SDS011;57745;42.524;12.052;2023-06-26T02:22:29;4.28;;;2.88;;
58366;SDS011;57745;42.524;12.052;2023-06-26T02:24:54;3.90;;;2.90;;
58366;SDS011;57745;42.524;12.052;2023-06-26T02:27:20;4.18;;;2.83;;
58366;SDS011;57745;42.524;12.052;2023-06-26T02:29:45;4.22;;;3.10;;
58366;SDS011;57745;42.524;12.052;2023-06-26T02:32:11;3.45;;;2.90;;
58366;SDS011;57745;42.524;12.052;2023-06-26T02:34:36;3.22;;;2.47;;
58366;SDS011;57745;42.524;12.052;2023-06-26T02:37:01;3.10;;;2.55;;
58366;SDS011;57745;42.524;12.052;2023-06-26T02:39:27;3.40;;;2.70;;
58366;SDS011;57745;42.524;12.052;2023-06-26T02:41:53;3.65;;;3.03;;
58366;SDS011;57745;42.524;12.052;2023-06-26T02:44:18;4.43;;;2.72;;
58366;SDS011;57745;42.524;12.052;2023-06-26T02:46:44;3.47;;;2.80;;
58366;SDS011;57745;42.524;12.052;2023-06-26T02:49:10;3.50;;;2.70;;
58366;SDS011;57745;42.524;12.052;2023-06-26T02:51:35;4.20;;;2.85;;
58366;SDS011;57745;42.524;12.052;2023-06-26T02:54:01;4.13;;;3.03;;
58366;SDS011;57745;42.524;12.052;2023-06-26T02:56:27;4.47;;;3.17;;
58366;SDS011;57745;42.524;12.052;2023-06-26T02:58:54;3.85;;;3.40;;
58366;SDS011;57745;42.524;12.052;2023-06-26T03:01:20;4.95;;;3.42;;
58366;SDS011;57745;42.524;12.052;2023-06-26T03:03:46;4.20;;;3.10;;
58366;SDS011;57745;42.524;12.052;2023-06-26T03:06:12;5.95;;;3.40;;
58366;SDS011;57745;42.524;12.052;2023-06-26T03:08:38;4.93;;;3.17;;
58366;SDS011;57745;42.524;12.052;2023-06-26T03:11:06;4.53;;;3.22;;
58366;SDS011;57745;42.524;12.052;2023-06-26T03:13:33;4.07;;;3.17;;
58366;SDS011;57745;42.524;12.052;2023-06-26T03:16:02;5.47;;;3.10;;
58366;SDS011;57745;42.524;12.052;2023-06-26T03:18:28;4.90;;;3.10;;
58366;SDS011;57745;42.524;12.052;2023-06-26T03:20:54;4.07;;;3.05;;
58366;SDS011;57745;42.524;12.052;2023-06-26T03:23:20;4.18;;;3.10;;
58366;SDS011;57745;42.524;12.052;2023-06-26T03:25:47;6.32;;;3.05;;
58366;SDS011;57745;42.524;12.052;2023-06-26T03:28:13;4.38;;;3.50;;
58366;SDS011;57745;42.524;12.052;2023-06-26T03:30:39;5.18;;;2.88;;
58366;SDS011;57745;42.524;12.052;2023-06-26T03:33:04;4.18;;;3.28;;
58366;SDS011;57745;42.524;12.052;2023-06-26T03:35:30;5.40;;;3.38;;
58366;SDS011;57745;42.524;12.052;2023-06-26T03:37:57;5.20;;;3.53;;
58366;SDS011;57745;42.524;12.052;2023-06-26T03:40:22;4.20;;;3.30;;
58366;SDS011;57745;42.524;12.052;2023-06-26T03:42:48;6.95;;;3.35;;
58366;SDS011;57745;42.524;12.052;2023-06-26T03:45:13;5.47;;;3.30;;
58366;SDS011;57745;42.524;12.052;2023-06-26T03:47:39;3.83;;;3.20;;
58366;SDS011;57745;42.524;12.052;2023-06-26T03:50:04;4.45;;;3.67;;
58366;SDS011;57745;42.524;12.052;2023-06-26T03:52:30;4.28;;;3.53;;
58366;SDS011;57745;42.524;12.052;2023-06-26T03:54:56;4.68;;;3.10;;
58366;SDS011;57745;42.524;12.052;2023-06-26T03:57:22;3.35;;;2.85;;
58366;SDS011;57745;42.524;12.052;2023-06-26T03:59:48;3.80;;;3.40;;
58366;SDS011;57745;42.524;12.052;2023-06-26T04:02:13;5.30;;;3.65;;
58366;SDS011;57745;42.524;12.052;2023-06-26T04:04:39;6.68;;;3.83;;
58366;SDS011;57745;42.524;12.052;2023-06-26T04:07:04;3.83;;;3.40;;
58366;SDS011;57745;42.524;12.052;2023-06-26T04:09:30;3.88;;;3.20;;
58366;SDS011;57745;42.524;12.052;2023-06-26T04:11:55;5.53;;;2.88;;
58366;SDS011;57745;42.524;12.052;2023-06-26T04:14:21;5.95;;;3.38;;
58366;SDS011;57745;42.524;12.052;2023-06-26T04:16:46;6.28;;;3.40;;
58366;SDS011;57745;42.524;12.052;2023-06-26T04:19:12;5.53;;;3.58;;
58366;SDS011;57745;42.524;12.052;2023-06-26T04:21:38;4.20;;;3.58;;
58366;SDS011;57745;42.524;12.052;2023-06-26T04:24:04;3.58;;;3.28;;
58366;SDS011;57745;42.524;12.052;2023-06-26T04:26:29;3.80;;;3.40;;
58366;SDS011;57745;42.524;12.052;2023-06-26T04:28:55;3.45;;;3.10;;
58366;SDS011;57745;42.524;12.052;2023-06-26T04:31:20;4.35;;;3.40;;
58366;SDS011;57745;42.524;12.052;2023-06-26T04:33:47;5.28;;;3.53;;
58366;SDS011;57745;42.524;12.052;2023-06-26T04:36:16;3.75;;;3.17;;
58366;SDS011;57745;42.524;12.052;2023-06-26T04:38:42;4.53;;;3.70;;
58366;SDS011;57745;42.524;12.052;2023-06-26T04:41:07;4.05;;;3.40;;
58366;SDS011;57745;42.524;12.052;2023-06-26T04:43:33;3.95;;;3.50;;
58366;SDS011;57745;42.524;12.052;2023-06-26T04:45:58;4.57;;;3.20;;
58366;SDS011;57745;42.524;12.052;2023-06-26T04:48:24;4.13;;;3.35;;
58366;SDS011;57745;42.524;12.052;2023-06-26T04:50:49;5.15;;;3.55;;
58366;SDS011;57745;42.524;12.052;2023-06-26T04:53:19;6.93;;;3.70;;
58366;SDS011;57745;42.524;12.052;2023-06-26T04:55:45;4.82;;;3.42;;
58366;SDS011;57745;42.524;12.052;2023-06-26T04:58:11;5.95;;;3.95;;
58366;SDS011;57745;42.524;12.052;2023-06-26T05:00:36;6.25;;;3.60;;
58366;SDS011;57745;42.524;12.052;2023-06-26T05:03:02;4.57;;;3.55;;
58366;SDS011;57745;42.524;12.052;2023-06-26T05:05:27;4.53;;;3.80;;
58366;SDS011;57745;42.524;12.052;2023-06-26T05:07:54;3.80;;;3.13;;
58366;SDS011;57745;42.524;12.052;2023-06-26T05:10:20;6.20;;;3.75;;
58366;SDS011;57745;42.524;12.052;2023-06-26T05:12:46;5.93;;;3.70;;
58366;SDS011;57745;42.524;12.052;2023-06-26T05:15:11;4.43;;;3.50;;
58366;SDS011;57745;42.524;12.052;2023-06-26T05:17:36;4.05;;;3.35;;
58366;SDS011;57745;42.524;12.052;2023-06-26T05:20:02;5.07;;;3.38;;
58366;SDS011;57745;42.524;12.052;2023-06-26T05:22:28;5.75;;;3.88;;
58366;SDS011;57745;42.524;12.052;2023-06-26T05:24:55;3.97;;;3.38;;
58366;SDS011;57745;42.524;12.052;2023-06-26T05:27:24;5.35;;;4.03;;
58366;SDS011;57745;42.524;12.052;2023-06-26T05:29:50;4.72;;;3.80;;
58366;SDS011;57745;42.524;12.052;2023-06-26T05:32:16;3.75;;;3.40;;
58366;SDS011;57745;42.524;12.052;2023-06-26T05:34:47;4.22;;;3.42;;
58366;SDS011;57745;42.524;12.052;2023-06-26T05:37:20;4.63;;;3.70;;
58366;SDS011;57745;42.524;12.052;2023-06-26T05:39:46;4.90;;;3.97;;
58366;SDS011;57745;42.524;12.052;2023-06-26T05:42:12;4.93;;;4.00;;
58366;SDS011;57745;42.524;12.052;2023-06-26T05:44:38;3.97;;;3.58;;
58366;SDS011;57745;42.524;12.052;2023-06-26T05:47:04;5.32;;;3.90;;
58366;SDS011;57745;42.524;12.052;2023-06-26T05:49:30;6.15;;;4.03;;
58366;SDS011;57745;42.524;12.052;2023-06-26T05:51:55;4.20;;;3.40;;
58366;SDS011;57745;42.524;12.052;2023-06-26T05:54:21;4.38;;;3.70;;
58366;SDS011;57745;42.524;12.052;2023-06-26T05:56:47;5.03;;;3.78;;
58366;SDS011;57745;42.524;12.052;2023-06-26T05:59:14;4.97;;;3.78;;
58366;SDS011;57745;42.524;12.052;2023-06-26T06:01:41;4.07;;;3.65;;
58366;SDS011;57745;42.524;12.052;2023-06-26T06:04:07;4.40;;;3.75;;
58366;SDS011;57745;42.524;12.052;2023-06-26T06:06:32;4.03;;;3.63;;
58366;SDS011;57745;42.524;12.052;2023-06-26T06:08:57;6.80;;;3.53;;
58366;SDS011;57745;42.524;12.052;2023-06-26T06:11:23;3.90;;;3.42;;
58366;SDS011;57745;42.524;12.052;2023-06-26T06:13:48;5.70;;;3.75;;
58366;SDS011;57745;42.524;12.052;2023-06-26T06:16:14;4.63;;;3.72;;
58366;SDS011;57745;42.524;12.052;2023-06-26T06:18:40;5.43;;;3.90;;
58366;SDS011;57745;42.524;12.052;2023-06-26T06:21:05;3.97;;;3.45;;
58366;SDS011;57745;42.524;12.052;2023-06-26T06:23:30;4.55;;;3.28;;
58366;SDS011;57745;42.524;12.052;2023-06-26T06:25:56;7.43;;;3.70;;
58366;SDS011;57745;42.524;12.052;2023-06-26T06:28:21;4.15;;;3.75;;
58366;SDS011;57745;42.524;12.052;2023-06-26T06:30:47;5.32;;;3.88;;
58366;SDS011;57745;42.524;12.052;2023-06-26T06:33:13;4.15;;;3.60;;
58366;SDS011;57745;42.524;12.052;2023-06-26T06:35:39;5.72;;;4.00;;
58366;SDS011;57745;42.524;12.052;2023-06-26T06:38:04;4.07;;;3.40;;
58366;SDS011;57745;42.524;12.052;2023-06-26T06:40:30;4.53;;;3.53;;
58366;SDS011;57745;42.524;12.052;2023-06-26T06:42:55;5.63;;;4.07;;
58366;SDS011;57745;42.524;12.052;2023-06-26T06:45:21;4.88;;;3.42;;
58366;SDS011;57745;42.524;12.052;2023-06-26T06:47:46;4.40;;;4.00;;
58366;SDS011;57745;42.524;12.052;2023-06-26T06:50:12;4.45;;;3.70;;
58366;SDS011;57745;42.524;12.052;2023-06-26T06:52:39;9.48;;;3.67;;
58366;SDS011;57745;42.524;12.052;2023-06-26T06:55:05;4.10;;;3.63;;
58366;SDS011;57745;42.524;12.052;2023-06-26T06:57:33;4.75;;;3.60;;
58366;SDS011;57745;42.524;12.052;2023-06-26T07:00:06;4.57;;;3.70;;
58366;SDS011;57745;42.524;12.052;2023-06-26T07:02:36;4.10;;;3.70;;
58366;SDS011;57745;42.524;12.052;2023-06-26T07:05:05;5.22;;;4.25;;
58366;SDS011;57745;42.524;12.052;2023-06-26T07:07:31;5.68;;;3.90;;
58366;SDS011;57745;42.524;12.052;2023-06-26T07:10:02;4.75;;;3.88;;
58366;SDS011;57745;42.524;12.052;2023-06-26T07:12:32;5.28;;;3.83;;
58366;SDS011;57745;42.524;12.052;2023-06-26T07:15:00;5.72;;;4.18;;
58366;SDS011;57745;42.524;12.052;2023-06-26T07:17:26;4.13;;;3.53;;
58366;SDS011;57745;42.524;12.052;2023-06-26T07:19:51;5.15;;;3.88;;
58366;SDS011;57745;42.524;12.052;2023-06-26T07:22:17;4.15;;;3.47;;
58366;SDS011;57745;42.524;12.052;2023-06-26T07:24:45;6.40;;;3.80;;
58366;SDS011;57745;42.524;12.052;2023-06-26T07:27:10;4.85;;;3.70;;
58366;SDS011;57745;42.524;12.052;2023-06-26T07:29:36;4.15;;;3.70;;
58366;SDS011;57745;42.524;12.052;2023-06-26T07:32:02;4.53;;;3.90;;
58366;SDS011;57745;42.524;12.052;2023-06-26T07:34:27;4.07;;;3.55;;
58366;SDS011;57745;42.524;12.052;2023-06-26T07:36:53;4.82;;;3.75;;
58366;SDS011;57745;42.524;12.052;2023-06-26T07:39:19;6.22;;;3.72;;
58366;SDS011;57745;42.524;12.052;2023-06-26T07:41:44;4.57;;;3.90;;
58366;SDS011;57745;42.524;12.052;2023-06-26T07:44:09;4.45;;;3.63;;
58366;SDS011;57745;42.524;12.052;2023-06-26T07:46:35;5.82;;;3.75;;
58366;SDS011;57745;42.524;12.052;2023-06-26T07:49:00;4.55;;;3.95;;
58366;SDS011;57745;42.524;12.052;2023-06-26T07:51:26;5.53;;;3.70;;
58366;SDS011;57745;42.524;12.052;2023-06-26T07:53:51;5.60;;;3.88;;
58366;SDS011;57745;42.524;12.052;2023-06-26T07:56:16;5.15;;;3.78;;
58366;SDS011;57745;42.524;12.052;2023-06-26T07:58:42;4.82;;;3.83;;
58366;SDS011;57745;42.524;12.052;2023-06-26T08:01:08;5.35;;;3.60;;
58366;SDS011;57745;42.524;12.052;2023-06-26T08:03:33;5.70;;;3.85;;
58366;SDS011;57745;42.524;12.052;2023-06-26T08:05:59;6.65;;;3.90;;
58366;SDS011;57745;42.524;12.052;2023-06-26T08:08:24;4.90;;;3.72;;
58366;SDS011;57745;42.524;12.052;2023-06-26T08:10:50;4.75;;;4.22;;
58366;SDS011;57745;42.524;12.052;2023-06-26T08:13:15;4.88;;;3.85;;
58366;SDS011;57745;42.524;12.052;2023-06-26T08:15:41;4.50;;;3.75;;
58366;SDS011;57745;42.524;12.052;2023-06-26T08:18:06;5.53;;;4.05;;
58366;SDS011;57745;42.524;12.052;2023-06-26T08:20:32;4.60;;;3.75;;
58366;SDS011;57745;42.524;12.052;2023-06-26T08:22:57;6.13;;;4.32;;
58366;SDS011;57745;42.524;12.052;2023-06-26T08:25:23;4.45;;;3.97;;
58366;SDS011;57745;42.524;12.052;2023-06-26T08:27:48;5.45;;;4.28;;
58366;SDS011;57745;42.524;12.052;2023-06-26T08:30:14;5.35;;;4.10;;
58366;SDS011;57745;42.524;12.052;2023-06-26T08:32:39;5.82;;;4.10;;
58366;SDS011;57745;42.524;12.052;2023-06-26T08:35:05;5.15;;;4.20;;
58366;SDS011;57745;42.524;12.052;2023-06-26T08:37:31;6.18;;;4.05;;
58366;SDS011;57745;42.524;12.052;2023-06-26T08:39:58;5.35;;;4.05;;
58366;SDS011;57745;42.524;12.052;2023-06-26T08:42:24;5.68;;;4.05;;
58366;SDS011;57745;42.524;12.052;2023-06-26T08:44:50;4.95;;;3.95;;
58366;SDS011;57745;42.524;12.052;2023-06-26T08:47:15;5.18;;;4.03;;
58366;SDS011;57745;42.524;12.052;2023-06-26T08:52:27;8.55;;;4.03;;
58366;SDS011;57745;42.524;12.052;2023-06-26T08:54:57;4.88;;;4.03;;
58366;SDS011;57745;42.524;12.052;2023-06-26T08:57:23;4.82;;;3.90;;
58366;SDS011;57745;42.524;12.052;2023-06-26T08:59:51;4.95;;;4.15;;
58366;SDS011;57745;42.524;12.052;2023-06-26T09:02:17;5.45;;;4.25;;
58366;SDS011;57745;42.524;12.052;2023-06-26T09:04:45;6.07;;;4.30;;
58366;SDS011;57745;42.524;12.052;2023-06-26T09:07:13;5.38;;;4.18;;
58366;SDS011;57745;42.524;12.052;2023-06-26T09:09:38;5.72;;;4.38;;
58366;SDS011;57745;42.524;12.052;2023-06-26T09:12:04;9.43;;;4.10;;
58366;SDS011;57745;42.524;12.052;2023-06-26T09:14:29;5.85;;;4.05;;
58366;SDS011;57745;42.524;12.052;2023-06-26T09:16:55;5.88;;;4.15;;
58366;SDS011;57745;42.524;12.052;2023-06-26T09:19:20;5.00;;;4.13;;
58366;SDS011;57745;42.524;12.052;2023-06-26T09:21:46;4.53;;;4.13;;
58366;SDS011;57745;42.524;12.052;2023-06-26T09:24:14;4.97;;;4.00;;
58366;SDS011;57745;42.524;12.052;2023-06-26T09:26:41;5.47;;;3.90;;
58366;SDS011;57745;42.524;12.052;2023-06-26T09:29:07;6.00;;;3.65;;
58366;SDS011;57745;42.524;12.052;2023-06-26T09:31:33;5.35;;;4.13;;
58366;SDS011;57745;42.524;12.052;2023-06-26T09:34:03;5.50;;;3.50;;
58366;SDS011;57745;42.524;12.052;2023-06-26T09:36:30;5.57;;;4.35;;
58366;SDS011;57745;42.524;12.052;2023-06-26T09:38:58;5.32;;;4.13;;
58366;SDS011;57745;42.524;12.052;2023-06-26T09:41:25;6.38;;;4.22;;
58366;SDS011;57745;42.524;12.052;2023-06-26T09:43:50;7.95;;;3.70;;
58366;SDS011;57745;42.524;12.052;2023-06-26T09:46:16;5.22;;;4.25;;
58366;SDS011;57745;42.524;12.052;2023-06-26T09:48:43;5.32;;;3.90;;
58366;SDS011;57745;42.524;12.052;2023-06-26T09:51:09;6.43;;;3.88;;
58366;SDS011;57745;42.524;12.052;2023-06-26T09:53:35;6.35;;;4.38;;
58366;SDS011;57745;42.524;12.052;2023-06-26T09:56:06;4.43;;;3.70;;
58366;SDS011;57745;42.524;12.052;2023-06-26T09:58:32;5.32;;;3.72;;
58366;SDS011;57745;42.524;12.052;2023-06-26T10:00:58;5.75;;;3.95;;
58366;SDS011;57745;42.524;12.052;2023-06-26T10:03:23;4.55;;;3.83;;
58366;SDS011;57745;42.524;12.052;2023-06-26T10:05:49;5.25;;;4.32;;
58366;SDS011;57745;42.524;12.052;2023-06-26T10:08:15;7.25;;;4.22;;
58366;SDS011;57745;42.524;12.052;2023-06-26T10:10:42;6.32;;;3.80;;
58366;SDS011;57745;42.524;12.052;2023-06-26T10:13:14;5.47;;;3.90;;
58366;SDS011;57745;42.524;12.052;2023-06-26T10:15:43;4.93;;;3.83;;
58366;SDS011;57745;42.524;12.052;2023-06-26T10:18:10;5.18;;;4.10;;
58366;SDS011;57745;42.524;12.052;2023-06-26T10:20:38;6.30;;;4.05;;
58366;SDS011;57745;42.524;12.052;2023-06-26T10:23:05;5.18;;;4.07;;
58366;SDS011;57745;42.524;12.052;2023-06-26T10:25:31;4.78;;;3.58;;
58366;SDS011;57745;42.524;12.052;2023-06-26T10:27:58;5.28;;;4.10;;
58366;SDS011;57745;42.524;12.052;2023-06-26T10:30:28;4.57;;;3.50;;
58366;SDS011;57745;42.524;12.052;2023-06-26T10:33:00;6.78;;;3.95;;
58366;SDS011;57745;42.524;12.052;2023-06-26T10:35:27;4.97;;;3.58;;
58366;SDS011;57745;42.524;12.052;2023-06-26T10:37:53;6.28;;;4.15;;
58366;SDS011;57745;42.524;12.052;2023-06-26T10:40:28;4.68;;;3.78;;
58366;SDS011;57745;42.524;12.052;2023-06-26T10:43:06;4.68;;;3.60;;
58366;SDS011;57745;42.524;12.052;2023-06-26T10:45:33;4.78;;;3.92;;
58366;SDS011;57745;42.524;12.052;2023-06-26T10:48:01;5.05;;;3.70;;
58366;SDS011;57745;42.524;12.052;2023-06-26T10:50:27;5.32;;;3.88;;
58366;SDS011;57745;42.524;12.052;2023-06-26T10:55:58;4.15;;;3.17;;
58366;SDS011;57745;42.524;12.052;2023-06-26T11:03:38;4.65;;;3.63;;
58366;SDS011;57745;42.524;12.052;2023-06-26T11:06:08;4.15;;;3.60;;
58366;SDS011;57745;42.524;12.052;2023-06-26T11:11:20;4.90;;;3.78;;
58366;SDS011;57745;42.524;12.052;2023-06-26T11:13:47;4.03;;;3.15;;
58366;SDS011;57745;42.524;12.052;2023-06-26T11:16:13;6.03;;;3.63;;
58366;SDS011;57745;42.524;12.052;2023-06-26T11:18:42;6.53;;;3.88;;
58366;SDS011;57745;42.524;12.052;2023-06-26T11:21:10;5.70;;;4.18;;
58366;SDS011;57745;42.524;12.052;2023-06-26T11:23:38;5.00;;;3.75;;
58366;SDS011;57745;42.524;12.052;2023-06-26T11:26:20;5.95;;;3.65;;
58366;SDS011;57745;42.524;12.052;2023-06-26T11:28:49;5.30;;;3.38;;
58366;SDS011;57745;42.524;12.052;2023-06-26T11:31:26;4.93;;;3.47;;
58366;SDS011;57745;42.524;12.052;2023-06-26T11:33:54;5.28;;;3.70;;
58366;SDS011;57745;42.524;12.052;2023-06-26T11:36:19;3.67;;;3.28;;
58366;SDS011;57745;42.524;12.052;2023-06-26T11:38:53;5.82;;;3.70;;
58366;SDS011;57745;42.524;12.052;2023-06-26T11:41:20;5.53;;;3.47;;
58366;SDS011;57745;42.524;12.052;2023-06-26T11:43:47;4.03;;;3.28;;
58366;SDS011;57745;42.524;12.052;2023-06-26T11:46:13;4.03;;;3.63;;
58366;SDS011;57745;42.524;12.052;2023-06-26T11:48:41;6.22;;;3.67;;
58366;SDS011;57745;42.524;12.052;2023-06-26T11:51:07;4.05;;;3.13;;
58366;SDS011;57745;42.524;12.052;2023-06-26T11:53:33;5.10;;;3.60;;
58366;SDS011;57745;42.524;12.052;2023-06-26T11:56:12;3.47;;;3.15;;
58366;SDS011;57745;42.524;12.052;2023-06-26T12:04:05;6.03;;;3.80;;
58366;SDS011;57745;42.524;12.052;2023-06-26T12:06:36;4.53;;;3.38;;
58366;SDS011;57745;42.524;12.052;2023-06-26T12:09:04;5.32;;;3.72;;
58366;SDS011;57745;42.524;12.052;2023-06-26T12:11:32;5.38;;;3.40;;
58366;SDS011;57745;42.524;12.052;2023-06-26T12:13:59;5.20;;;3.28;;
58366;SDS011;57745;42.524;12.052;2023-06-26T12:16:25;4.25;;;3.28;;
58366;SDS011;57745;42.524;12.052;2023-06-26T12:18:57;6.45;;;3.60;;
58366;SDS011;57745;42.524;12.052;2023-06-26T12:24:09;6.03;;;3.40;;
58366;SDS011;57745;42.524;12.052;2023-06-26T12:26:40;4.85;;;3.55;;
58366;SDS011;57745;42.524;12.052;2023-06-26T12:29:09;6.57;;;3.67;;
58366;SDS011;57745;42.524;12.052;2023-06-26T12:31:42;5.25;;;3.90;;
58366;SDS011;57745;42.524;12.052;2023-06-26T12:34:13;4.55;;;3.40;;
58366;SDS011;57745;42.524;12.052;2023-06-26T12:36:42;3.83;;;3.15;;
58366;SDS011;57745;42.524;12.052;2023-06-26T12:39:12;5.40;;;3.47;;
58366;SDS011;57745;42.524;12.052;2023-06-26T12:44:16;3.78;;;3.45;;
58366;SDS011;57745;42.524;12.052;2023-06-26T12:46:42;7.88;;;3.50;;
58366;SDS011;57745;42.524;12.052;2023-06-26T12:49:08;3.88;;;3.45;;
58366;SDS011;57745;42.524;12.052;2023-06-26T12:51:33;5.47;;;3.60;;
58366;SDS011;57745;42.524;12.052;2023-06-26T12:53:59;5.25;;;3.28;;
58366;SDS011;57745;42.524;12.052;2023-06-26T12:56:24;4.60;;;3.90;;
58366;SDS011;57745;42.524;12.052;2023-06-26T12:58:49;3.60;;;3.17;;
58366;SDS011;57745;42.524;12.052;2023-06-26T13:01:15;4.35;;;3.58;;
58366;SDS011;57745;42.524;12.052;2023-06-26T13:03:44;5.10;;;3.28;;
58366;SDS011;57745;42.524;12.052;2023-06-26T13:06:10;4.63;;;3.38;;
58366;SDS011;57745;42.524;12.052;2023-06-26T13:08:37;4.03;;;3.10;;
58366;SDS011;57745;42.524;12.052;2023-06-26T13:11:02;5.75;;;3.83;;
58366;SDS011;57745;42.524;12.052;2023-06-26T13:13:28;4.40;;;3.95;;
58366;SDS011;57745;42.524;12.052;2023-06-26T13:15:53;4.22;;;3.03;;
58366;SDS011;57745;42.524;12.052;2023-06-26T13:18:19;4.00;;;3.40;;
58366;SDS011;57745;42.524;12.052;2023-06-26T13:20:45;5.32;;;3.50;;
58366;SDS011;57745;42.524;12.052;2023-06-26T13:23:11;5.68;;;3.72;;
58366;SDS011;57745;42.524;12.052;2023-06-26T13:25:36;4.90;;;3.40;;
58366;SDS011;57745;42.524;12.052;2023-06-26T13:28:02;6.38;;;3.38;;
58366;SDS011;57745;42.524;12.052;2023-06-26T13:30:27;5.07;;;4.03;;
58366;SDS011;57745;42.524;12.052;2023-06-26T13:32:52;4.53;;;3.72;;
58366;SDS011;57745;42.524;12.052;2023-06-26T13:35:18;5.05;;;3.47;;
58366;SDS011;57745;42.524;12.052;2023-06-26T13:37:43;4.38;;;3.25;;
58366;SDS011;57745;42.524;12.052;2023-06-26T13:40:09;5.15;;;3.58;;
58366;SDS011;57745;42.524;12.052;2023-06-26T13:42:35;5.68;;;3.67;;
58366;SDS011;57745;42.524;12.052;2023-06-26T13:45:01;5.15;;;3.65;;
58366;SDS011;57745;42.524;12.052;2023-06-26T13:47:28;4.18;;;3.15;;
58366;SDS011;57745;42.524;12.052;2023-06-26T13:49:54;5.22;;;3.70;;
58366;SDS011;57745;42.524;12.052;2023-06-26T13:52:19;4.22;;;3.50;;
58366;SDS011;57745;42.524;12.052;2023-06-26T13:54:44;4.45;;;3.35;;
58366;SDS011;57745;42.524;12.052;2023-06-26T13:57:10;6.32;;;4.32;;
58366;SDS011;57745;42.524;12.052;2023-06-26T13:59:36;4.43;;;3.35;;
58366;SDS011;57745;42.524;12.052;2023-06-26T14:02:03;4.53;;;3.72;;
58366;SDS011;57745;42.524;12.052;2023-06-26T14:04:30;4.63;;;3.60;;
58366;SDS011;57745;42.524;12.052;2023-06-26T14:06:55;8.48;;;3.58;;
58366;SDS011;57745;42.524;12.052;2023-06-26T14:09:21;7.47;;;3.55;;
58366;SDS011;57745;42.524;12.052;2023-06-26T14:11:46;4.63;;;3.33;;
58366;SDS011;57745;42.524;12.052;2023-06-26T14:14:12;6.65;;;3.90;;
58366;SDS011;57745;42.524;12.052;2023-06-26T14:16:38;5.18;;;3.40;;
58366;SDS011;57745;42.524;12.052;2023-06-26T14:19:05;5.88;;;3.58;;
58366;SDS011;57745;42.524;12.052;2023-06-26T14:21:30;4.90;;;3.65;;
58366;SDS011;57745;42.524;12.052;2023-06-26T14:23:56;4.53;;;3.72;;
58366;SDS011;57745;42.524;12.052;2023-06-26T14:26:21;3.88;;;3.30;;
58366;SDS011;57745;42.524;12.052;2023-06-26T14:28:46;4.32;;;3.92;;
58366;SDS011;57745;42.524;12.052;2023-06-26T14:31:12;6.30;;;3.72;;
58366;SDS011;57745;42.524;12.052;2023-06-26T14:33:38;4.97;;;3.60;;
58366;SDS011;57745;42.524;12.052;2023-06-26T14:36:04;5.20;;;3.58;;
58366;SDS011;57745;42.524;12.052;2023-06-26T14:38:29;6.75;;;3.67;;
58366;SDS011;57745;42.524;12.052;2023-06-26T14:40:55;5.60;;;4.00;;
58366;SDS011;57745;42.524;12.052;2023-06-26T14:43:21;4.10;;;3.70;;
58366;SDS011;57745;42.524;12.052;2023-06-26T14:45:46;3.85;;;3.45;;
58366;SDS011;57745;42.524;12.052;2023-06-26T14:48:12;4.82;;;3.70;;
58366;SDS011;57745;42.524;12.052;2023-06-26T14:50:38;4.63;;;3.78;;
58366;SDS011;57745;42.524;12.052;2023-06-26T14:53:03;9.38;;;3.83;;
58366;SDS011;57745;42.524;12.052;2023-06-26T14:55:29;4.75;;;3.88;;
58366;SDS011;57745;42.524;12.052;2023-06-26T14:57:54;6.10;;;3.78;;
58366;SDS011;57745;42.524;12.052;2023-06-26T15:00:20;3.45;;;3.10;;